Ringgold, VA

7:30 PM EDT on September 21, 2014 (GMT -0400)
Danville Regional | Change Station
CLOSE
Current Station
Airport
Location: Danville,
Elevation: 571 ft
Nearby Weather Stations

Elev 571 ft 36.57 °N, 79.34 °W | Updated 37 minutes ago

Partly Cloudy
Partly Cloudy
79 °F
Feels Like 79 °F
N
8
Wind Variable Wind from WSW

Today
High -- | Low -- °F
--% Chance of Precip.
Yesterday
High -- | Low -- °F
Precip. -- in
7:04 AM 7:15 PM
Waning Crescent, 5% visible
Pressure 29.77 in
Visibility 10.0 miles
Clouds Scattered Clouds 9500 ft
Dew Point 64 °F
Humidity 60%
Rainfall 0.00 in
Snow Depth Not available.
UV 0 out of 12
Pollen 7.20 out of 12
Air Quality Not available.
Flu Activity Not available.
METAR KDAN 212253Z AUTO 25007KT 10SM SCT095 26/18 A2980 RMK AO2 SLP081 T02610178

More Conditions Fewer Conditions

Pressure 29.77 in
Visibility 10.0 miles
Clouds Scattered Clouds 9500 ft
Dew Point 64 °F
Humidity 60%
Rainfall 0.00 in
Snow Depth Not available.
UV 0 out of 12
Pollen 7.20 out of 12
Air Quality Not available.
Flu Activity Not available.
METAR KDAN 212253Z AUTO 25007KT 10SM SCT095 26/18 A2980 RMK AO2 SLP081 T02610178

More Conditions Fewer Conditions

10-Day Weather Forecast

Almanac

Astronomy

Sep. 21, 2014 Rise Set
Actual Time 7:04 AM EDT 7:15 PM EDT
Civil Twilight 6:38 AM EDT 7:41 PM EDT
Nautical Twilight 6:08 AM EDT 8:11 PM EDT
Astronomical Twilight 5:37 AM EDT 8:42 PM EDT
Moon 4:39 AM EDT 5:48 PM EDT
Length of Visible Light 13h 02m
Length of Day
12h 11m
Tomorrow will be 2m 18s shorter.
Waning Crescent, 5% of the Moon is Illuminated
Today
Waning Crescent
Sep 24
New
Oct 1
First Quarter
Oct 8
Full
Oct 15
Last Quarter

Today's Extremes

State Highs State Lows

Community

WunderPhotos

Upload Photos

1,755,292 photos uploaded!

WunderBlogs® & News

Nearby

Snow Depth

Station Depth Elevation
No new snow has been reported.

Earthquake Activity

City Distance Mag. Time & Date
No recent earthquake activity has been reported nearby.
Minimum magnitude displayed is 2.5.

Coastal Water Temperatures

Place Temperature
No Stations Reporting

Nearby Weather Stations